createdAt,value
2022-11-19T00:10:51.665Z,42.25
2022-11-19T00:13:20.286Z,40.78
2022-11-19T00:15:56.587Z,34.28
2022-11-19T00:18:41.234Z,38.38
2022-11-19T00:21:17.890Z,42.58
2022-11-19T00:23:54.417Z,39.25
2022-11-19T00:26:23.648Z,39.70
2022-11-19T00:37:21.937Z,40.88
2022-11-19T00:43:18.982Z,39.75
2022-11-19T00:45:49.372Z,38.88
2022-11-19T00:48:18.942Z,39.83
2022-11-19T00:50:50.379Z,36.70
2022-11-19T00:53:20.913Z,39.78
2022-11-19T00:55:49.502Z,43.50
2022-11-19T01:01:06.105Z,35.72
2022-11-19T01:03:35.704Z,39.67
2022-11-19T01:06:09.748Z,37.20
2022-11-19T01:08:39.755Z,33.83
2022-11-19T01:11:09.964Z,38.78
2022-11-19T01:13:38.229Z,33.08
2022-11-19T01:16:20.936Z,39.28
2022-11-19T01:18:49.608Z,31.15
2022-11-19T01:21:20.021Z,37.85
2022-11-19T01:23:51.324Z,34.72
2022-11-19T01:26:19.853Z,40.03
2022-11-19T01:28:48.945Z,36.45
2022-11-19T01:31:28.131Z,37.47
2022-11-19T01:33:57.487Z,35.38
2022-11-19T01:36:29.122Z,40.38
2022-11-19T01:39:00.132Z,31.65
2022-11-19T01:41:39.507Z,37.85
2022-11-19T01:44:57.934Z,36.75
2022-11-19T01:47:33.472Z,30.40
2022-11-19T01:50:01.790Z,38.78
2022-11-19T01:52:30.966Z,31.05
2022-11-19T01:55:09.221Z,31.88
2022-11-19T01:57:42.914Z,36.92
2022-11-19T02:00:12.595Z,35.05
2022-11-19T02:02:41.963Z,28.80
2022-11-19T02:05:13.210Z,29.08
2022-11-19T02:07:43.769Z,26.98
2022-11-19T02:10:15.076Z,28.77
2022-11-19T02:13:18.944Z,25.15
2022-11-19T02:15:55.176Z,32.38
2022-11-19T02:18:39.301Z,30.40
2022-11-19T02:21:20.895Z,32.33
2022-11-19T02:24:16.215Z,25.55
2022-11-19T02:26:44.781Z,28.45
2022-11-19T02:29:31.766Z,26.30
2022-11-19T02:32:13.794Z,27.50
2022-11-19T02:34:47.017Z,25.63
2022-11-19T02:37:26.129Z,19.88
2022-11-19T02:40:10.343Z,22.88
2022-11-19T02:43:10.178Z,20.95
2022-11-19T02:45:54.230Z,19.70
2022-11-19T02:48:31.270Z,18.42
2022-11-19T02:51:01.970Z,14.23
2022-11-19T02:53:32.201Z,14.60
2022-11-19T02:56:53.962Z,13.45
2022-11-19T03:00:00.026Z,15.85
2022-11-19T03:02:53.953Z,13.73
2022-11-19T03:05:28.932Z,15.90
2022-11-19T03:07:59.163Z,13.48
2022-11-19T03:10:33.949Z,14.85
2022-11-19T03:13:40.672Z,13.27
2022-11-19T03:16:28.779Z,13.52
2022-11-19T03:19:24.380Z,16.15
2022-11-19T03:21:57.481Z,13.85
2022-11-19T03:24:36.137Z,11.63
2022-11-19T03:27:10.265Z,12.48
2022-11-19T03:29:42.494Z,12.55
2022-11-19T03:32:22.899Z,13.38
2022-11-19T03:35:01.628Z,12.80
2022-11-19T03:37:32.491Z,10.50
2022-11-19T03:40:01.030Z,12.02
2022-11-19T03:42:29.380Z,12.63
2022-11-19T03:45:02.467Z,11.10
2022-11-19T03:47:36.041Z,11.77
2022-11-19T03:50:19.725Z,12.25
2022-11-19T03:52:47.859Z,13.10
2022-11-19T03:55:16.497Z,14.40
2022-11-19T03:57:58.357Z,12.63
2022-11-19T04:00:26.633Z,11.40
2022-11-19T04:02:54.639Z,11.40
2022-11-19T04:05:22.932Z,15.02
2022-11-19T04:07:51.573Z,13.23
2022-11-19T04:10:27.052Z,11.20
2022-11-19T04:12:55.176Z,10.45
2022-11-19T04:15:22.891Z,12.20
2022-11-19T04:17:50.556Z,10.80
2022-11-19T04:20:18.671Z,9.93
2022-11-19T04:22:46.376Z,11.35
2022-11-19T04:25:14.201Z,9.25
2022-11-19T04:27:42.527Z,11.02
2022-11-19T04:30:14.539Z,10.48
2022-11-19T04:32:50.400Z,10.18
2022-11-19T04:35:25.026Z,10.27
2022-11-19T04:37:56.493Z,9.10
2022-11-19T04:40:28.719Z,9.60
2022-11-19T04:49:04.612Z,6.43
2022-11-19T04:51:35.045Z,10.20
2022-11-19T04:54:04.553Z,8.43
2022-11-19T09:03:55.869Z,30.35
2022-11-19T09:09:26.626Z,34.72
2022-11-19T09:12:21.329Z,27.08
2022-11-19T09:14:50.940Z,28.27
2022-11-19T09:17:46.339Z,27.70
2022-11-19T09:20:32.700Z,29.23
2022-11-19T09:23:10.144Z,37.88
2022-11-19T09:25:51.008Z,29.15
2022-11-19T09:28:20.478Z,27.63
2022-11-19T09:34:13.213Z,29.17
2022-11-19T09:39:50.932Z,28.50
2022-11-19T09:42:46.575Z,24.85
2022-11-19T09:45:53.976Z,26.25
2022-11-19T09:48:36.418Z,27.20
2022-11-19T09:51:33.188Z,24.60
2022-11-19T09:54:07.650Z,24.90
2022-11-19T09:56:47.299Z,30.38
2022-11-19T09:59:40.664Z,27.63
2022-11-19T10:05:10.309Z,26.65
2022-11-19T10:07:55.731Z,25.70
2022-11-19T10:10:50.195Z,28.95
2022-11-19T10:13:42.782Z,29.77
2022-11-19T10:17:07.482Z,28.27
2022-11-19T10:19:42.771Z,34.42
2022-11-19T10:22:57.726Z,25.50
2022-11-19T10:25:37.387Z,25.05
2022-11-19T13:32:27.363Z,4.97
2022-11-19T13:35:15.173Z,4.55
2022-11-19T13:37:58.255Z,7.97
2022-11-19T13:40:37.516Z,5.50
2022-11-19T13:43:32.503Z,5.25
2022-11-19T13:46:12.664Z,4.63
2022-11-19T13:48:46.461Z,6.93
2022-11-19T13:51:44.313Z,9.23
2022-11-19T13:54:23.462Z,7.90
2022-11-19T13:56:54.911Z,7.72
2022-11-19T13:59:25.286Z,11.73
2022-11-19T14:01:58.881Z,8.88
2022-11-19T14:04:35.229Z,9.45
2022-11-19T14:07:19.444Z,8.48
2022-11-19T14:10:33.205Z,8.20
2022-11-19T14:13:25.694Z,6.85
2022-11-19T14:16:16.396Z,6.40
2022-11-19T14:19:05.124Z,9.05
2022-11-19T14:21:55.927Z,6.72
2022-11-19T14:24:44.561Z,9.27
2022-11-19T14:27:17.789Z,5.35
2022-11-19T14:29:45.210Z,5.75
2022-11-19T14:32:12.778Z,6.97
2022-11-19T14:35:07.514Z,18.08
2022-11-19T14:37:41.872Z,6.95
2022-11-19T14:40:32.321Z,8.82
2022-11-19T14:43:18.271Z,10.13
2022-11-19T14:46:11.417Z,8.07
2022-11-19T14:48:39.646Z,9.55
2022-11-19T14:51:13.160Z,7.57
2022-11-19T14:54:01.702Z,12.57
2022-11-19T14:56:30.789Z,13.00
2022-11-19T14:59:23.340Z,6.07
2022-11-19T15:01:55.935Z,4.93
2022-11-19T15:04:29.998Z,7.57
2022-11-19T15:06:59.852Z,5.05
2022-11-19T15:10:05.319Z,7.10
2022-11-19T15:12:55.252Z,9.38
2022-11-19T15:15:33.360Z,8.93
2022-11-19T17:50:09.454Z,11.73
2022-11-19T17:52:44.643Z,12.00
2022-11-19T17:55:20.960Z,14.35
2022-11-19T17:58:06.371Z,11.00
2022-11-19T18:00:34.611Z,13.85
2022-11-19T18:03:03.472Z,11.77
2022-11-19T18:05:34.552Z,14.05
2022-11-19T18:08:04.978Z,16.27
2022-11-19T18:10:35.056Z,13.57
2022-11-19T18:13:07.425Z,11.73
2022-11-19T18:15:38.765Z,11.13
2022-11-19T18:18:48.446Z,12.80
2022-11-19T18:21:22.741Z,8.70
2022-11-19T18:24:01.744Z,8.75
2022-11-19T18:26:48.955Z,9.32
2022-11-19T18:29:36.918Z,10.20
2022-11-19T18:32:14.360Z,8.13
2022-11-19T18:35:01.728Z,10.80
2022-11-19T18:37:37.040Z,11.50
2022-11-19T18:40:13.219Z,11.85
2022-11-19T18:43:04.178Z,10.93
2022-11-19T18:45:44.583Z,11.63
2022-11-19T18:48:29.710Z,12.95
2022-11-19T18:51:06.211Z,11.40
2022-11-19T18:53:38.045Z,12.00
2022-11-19T18:56:18.476Z,13.85
2022-11-19T18:59:05.057Z,15.02
2022-11-19T19:01:36.448Z,14.10
2022-11-19T19:04:10.473Z,15.57
2022-11-19T19:07:00.004Z,18.80
2022-11-19T19:13:07.495Z,17.33
2022-11-19T19:15:43.684Z,14.02
2022-11-19T19:18:21.625Z,11.50
2022-11-19T19:21:09.364Z,12.65
2022-11-19T19:23:47.623Z,12.77
2022-11-19T19:26:26.039Z,10.93
2022-11-19T19:29:02.642Z,7.80
2022-11-19T19:31:44.075Z,7.93
2022-11-19T19:34:20.341Z,9.65
2022-11-19T19:37:04.044Z,10.98
2022-11-19T19:39:44.877Z,9.18
2022-11-19T19:42:20.828Z,10.77
2022-11-19T19:45:05.871Z,9.65
2022-11-19T19:47:35.909Z,9.15
2022-11-19T19:50:15.303Z,9.45
2022-11-19T19:52:54.985Z,10.18
2022-11-19T19:55:23.450Z,13.15
2022-11-19T19:57:56.484Z,15.50
2022-11-19T20:00:24.907Z,14.98
2022-11-19T20:02:55.615Z,13.48
2022-11-19T20:05:33.379Z,14.02
2022-11-19T20:08:06.395Z,16.25
2022-11-19T20:10:40.107Z,15.60
2022-11-19T22:28:51.872Z,20.05
2022-11-19T22:31:36.409Z,16.88
2022-11-19T22:34:07.633Z,40.55
2022-11-19T22:36:36.961Z,20.85
2022-11-19T22:39:27.476Z,21.65
2022-11-19T22:48:49.891Z,21.70
2022-11-19T22:54:06.770Z,28.45
2022-11-19T23:34:48.206Z,29.83
2022-11-19T23:37:33.158Z,29.83
2022-11-19T23:40:16.879Z,30.25
2022-11-19T23:42:53.456Z,31.90
2022-11-19T23:45:25.886Z,33.55
2022-11-19T23:47:55.084Z,30.52
2022-11-19T23:50:27.634Z,31.45
2022-11-19T23:53:12.906Z,35.97
2022-11-19T23:55:49.672Z,30.52
2022-11-19T23:58:23.596Z,27.80
